createdAt,value
2019-03-17T00:01:12.105Z,10.40
2019-03-17T00:03:39.896Z,10.30
2019-03-17T00:06:08.126Z,10.20
2019-03-17T00:08:36.097Z,10.20
2019-03-17T00:11:04.367Z,10.40
2019-03-17T00:13:32.699Z,10.40
2019-03-17T00:16:00.902Z,10.40
2019-03-17T00:18:28.944Z,10.40
2019-03-17T00:20:57.321Z,10.50
2019-03-17T00:23:25.829Z,10.60
2019-03-17T00:25:53.840Z,10.50
2019-03-17T00:28:22.127Z,10.60
2019-03-17T00:30:50.353Z,10.50
2019-03-17T00:33:18.404Z,10.50
2019-03-17T00:35:46.719Z,10.60
2019-03-17T00:38:14.846Z,10.60
2019-03-17T00:40:43.076Z,10.50
2019-03-17T00:43:11.280Z,10.50
2019-03-17T00:45:39.814Z,10.50
2019-03-17T00:48:08.598Z,10.50
2019-03-17T00:50:38.718Z,10.50
2019-03-17T00:53:06.636Z,10.60
2019-03-17T00:55:35.127Z,10.70
2019-03-17T00:58:03.214Z,10.60
2019-03-17T01:00:31.895Z,10.60
2019-03-17T01:02:59.891Z,10.60
2019-03-17T01:05:27.977Z,10.50
2019-03-17T01:07:56.184Z,10.60
2019-03-17T01:10:25.185Z,10.50
2019-03-17T01:12:53.219Z,10.30
2019-03-17T01:15:23.916Z,10.40
2019-03-17T01:17:52.338Z,10.30
2019-03-17T01:20:20.712Z,10.30
2019-03-17T01:22:48.943Z,10.30
2019-03-17T01:25:17.456Z,10.30
2019-03-17T01:27:45.479Z,10.30
2019-03-17T01:30:16.336Z,10.30
2019-03-17T01:32:44.223Z,10.20
2019-03-17T01:35:12.360Z,10.10
2019-03-17T01:37:40.267Z,10.20
2019-03-17T01:40:08.374Z,10.20
2019-03-17T01:42:36.381Z,10.20
2019-03-17T01:45:05.975Z,10.20
2019-03-17T01:47:33.909Z,10.20
2019-03-17T01:50:02.457Z,10.20
2019-03-17T01:52:30.661Z,10.20
2019-03-17T01:54:58.855Z,10.20
2019-03-17T01:57:26.932Z,10.20
2019-03-17T01:59:55.096Z,10.00
2019-03-17T02:02:23.160Z,10.10
2019-03-17T02:04:51.116Z,10.10
2019-03-17T02:07:19.100Z,10.10
2019-03-17T02:09:47.211Z,9.90
2019-03-17T02:12:15.171Z,10.00
2019-03-17T02:14:43.595Z,10.10
2019-03-17T02:17:11.682Z,10.00
2019-03-17T02:19:39.634Z,10.10
2019-03-17T02:22:07.493Z,10.20
2019-03-17T02:24:35.780Z,10.20
2019-03-17T02:27:03.746Z,10.10
2019-03-17T02:29:31.968Z,9.90
2019-03-17T02:32:00.197Z,9.90
2019-03-17T02:34:28.221Z,10.00
2019-03-17T02:36:56.129Z,10.10
2019-03-17T02:39:26.236Z,10.00
2019-03-17T02:41:59.973Z,9.70
2019-03-17T02:44:28.186Z,10.00
2019-03-17T02:46:56.104Z,10.00
2019-03-17T02:49:24.098Z,10.20
2019-03-17T02:51:52.062Z,10.00
2019-03-17T02:54:20.047Z,10.10
2019-03-17T02:56:48.060Z,10.10
2019-03-17T02:59:16.029Z,9.90
2019-03-17T03:01:44.330Z,9.90
2019-03-17T03:04:12.378Z,9.60
2019-03-17T03:06:40.589Z,9.50
2019-03-17T03:09:08.658Z,9.40
2019-03-17T03:11:36.731Z,9.20
2019-03-17T03:14:04.934Z,9.20
2019-03-17T03:16:35.264Z,9.20
2019-03-17T03:19:03.658Z,9.20
2019-03-17T03:21:31.743Z,9.20
2019-03-17T03:23:59.633Z,9.20
2019-03-17T03:26:27.692Z,9.10
2019-03-17T03:28:55.647Z,9.00
2019-03-17T03:31:23.774Z,9.00
2019-03-17T03:33:51.793Z,8.80
2019-03-17T03:36:19.930Z,8.90
2019-03-17T03:38:47.926Z,8.70
2019-03-17T03:41:15.967Z,8.80
2019-03-17T03:43:43.880Z,8.70
2019-03-17T03:46:11.947Z,8.50
2019-03-17T03:48:39.921Z,8.50
2019-03-17T03:51:09.245Z,8.50
2019-03-17T03:53:37.289Z,8.60
2019-03-17T03:56:05.410Z,8.50
2019-03-17T03:58:33.338Z,8.30
2019-03-17T04:01:01.452Z,8.20
2019-03-17T04:03:29.378Z,8.10
2019-03-17T04:05:57.802Z,8.00
2019-03-17T04:08:25.853Z,8.10
2019-03-17T04:10:53.818Z,8.10
2019-03-17T04:13:21.832Z,7.90
2019-03-17T04:15:50.382Z,7.70
2019-03-17T04:18:18.269Z,7.70
2019-03-17T04:20:46.389Z,7.50
2019-03-17T04:23:14.458Z,7.60
2019-03-17T04:25:42.404Z,7.60
2019-03-17T04:28:10.743Z,7.50
2019-03-17T04:30:40.573Z,7.80
2019-03-17T04:33:08.476Z,7.70
2019-03-17T04:35:36.451Z,7.70
2019-03-17T04:38:04.355Z,8.00
2019-03-17T04:40:32.374Z,7.80
2019-03-17T04:43:00.473Z,7.80
2019-03-17T04:45:28.456Z,7.70
2019-03-17T04:47:56.390Z,7.80
2019-03-17T04:50:24.412Z,7.80
2019-03-17T04:52:52.417Z,8.10
2019-03-17T04:55:20.329Z,8.00
2019-03-17T04:57:48.314Z,7.90
2019-03-17T05:00:16.811Z,8.10
2019-03-17T05:02:44.859Z,8.20
2019-03-17T05:05:13.241Z,8.30
2019-03-17T05:07:41.407Z,8.10
2019-03-17T05:10:09.486Z,8.00
2019-03-17T05:12:37.441Z,8.00
2019-03-17T05:15:05.501Z,7.90
2019-03-17T05:17:33.697Z,7.90
2019-03-17T05:20:01.668Z,7.80
2019-03-17T05:22:29.591Z,7.90
2019-03-17T05:24:57.608Z,7.80
2019-03-17T05:27:25.617Z,7.70
2019-03-17T05:29:53.504Z,8.00
2019-03-17T05:32:21.767Z,8.20
2019-03-17T05:34:49.716Z,8.30
2019-03-17T05:37:17.801Z,8.50
2019-03-17T05:39:45.764Z,8.80
2019-03-17T05:42:13.650Z,9.10
2019-03-17T05:44:41.813Z,9.30
2019-03-17T05:47:10.022Z,9.40
2019-03-17T05:49:38.003Z,9.40
2019-03-17T05:52:05.943Z,9.40
2019-03-17T05:54:34.101Z,9.30
2019-03-17T05:57:02.003Z,9.30
2019-03-17T05:59:29.952Z,9.50
2019-03-17T06:01:57.927Z,9.40
2019-03-17T06:04:26.327Z,9.50
2019-03-17T06:06:54.281Z,9.40
2019-03-17T06:09:22.318Z,9.50
2019-03-17T06:11:50.625Z,9.60
2019-03-17T06:14:18.583Z,9.50
2019-03-17T06:16:46.802Z,9.60
2019-03-17T06:19:15.089Z,9.50
2019-03-17T06:21:43.191Z,9.40
2019-03-17T06:24:11.311Z,9.20
2019-03-17T06:26:39.454Z,8.90
2019-03-17T06:29:07.710Z,8.90
2019-03-17T06:31:35.630Z,9.10
2019-03-17T06:34:04.190Z,9.00
2019-03-17T06:36:32.182Z,9.00
2019-03-17T06:39:00.220Z,8.90
2019-03-17T06:41:28.342Z,8.90
2019-03-17T06:43:56.288Z,8.90
2019-03-17T06:46:24.263Z,9.10
2019-03-17T06:48:52.288Z,9.20
2019-03-17T06:51:20.535Z,9.10
2019-03-17T06:53:56.460Z,9.40
2019-03-17T06:56:18.531Z,9.20
2019-03-17T06:58:46.553Z,9.10
2019-03-17T07:01:14.685Z,9.10
2019-03-17T07:03:42.728Z,9.10
2019-03-17T07:06:10.695Z,9.10
2019-03-17T07:08:38.668Z,9.00
2019-03-17T07:11:06.733Z,9.20
2019-03-17T07:13:35.007Z,9.20
2019-03-17T07:16:03.038Z,9.50
2019-03-17T07:18:31.056Z,10.00
2019-03-17T07:20:58.976Z,10.20
2019-03-17T07:23:27.817Z,10.50
2019-03-17T07:25:55.780Z,10.80
2019-03-17T07:28:24.137Z,11.00
2019-03-17T07:30:52.103Z,11.40
2019-03-17T07:33:20.436Z,11.50
2019-03-17T07:35:49.585Z,11.60
2019-03-17T07:38:17.909Z,11.80
2019-03-17T07:40:46.195Z,12.10
2019-03-17T07:43:14.446Z,12.30
2019-03-17T07:45:42.328Z,12.50
2019-03-17T07:48:10.531Z,12.60
2019-03-17T07:50:38.402Z,12.60
2019-03-17T07:53:06.292Z,12.60
2019-03-17T07:55:34.469Z,12.50
2019-03-17T07:58:02.888Z,12.60
2019-03-17T08:00:32.293Z,12.60
2019-03-17T08:03:00.594Z,12.60
2019-03-17T08:05:28.521Z,12.70
2019-03-17T08:08:08.173Z,12.70
2019-03-17T08:10:26.484Z,12.90
2019-03-17T08:12:54.510Z,13.00
2019-03-17T08:15:23.098Z,13.00
2019-03-17T08:17:51.753Z,13.30
2019-03-17T08:20:19.745Z,13.50
2019-03-17T08:22:47.723Z,13.60
2019-03-17T08:25:15.956Z,13.70
2019-03-17T08:27:44.348Z,13.50
2019-03-17T08:30:12.485Z,13.70
2019-03-17T08:32:41.459Z,13.70
2019-03-17T08:35:09.824Z,13.70
2019-03-17T08:37:38.451Z,13.80
2019-03-17T08:40:09.503Z,13.80
2019-03-17T08:42:37.556Z,13.90
2019-03-17T08:45:08.811Z,13.90
2019-03-17T08:47:36.848Z,14.00
2019-03-17T08:50:06.110Z,13.90
2019-03-17T08:52:37.380Z,13.80
2019-03-17T08:55:06.267Z,13.90
2019-03-17T08:57:34.808Z,13.80
2019-03-17T09:00:04.216Z,14.10
2019-03-17T09:02:34.638Z,14.40
2019-03-17T09:05:06.861Z,14.40
2019-03-17T09:07:35.014Z,14.20
2019-03-17T09:10:03.671Z,13.90
2019-03-17T09:12:32.524Z,13.80
2019-03-17T09:15:07.756Z,13.60
2019-03-17T09:17:35.856Z,13.50
2019-03-17T09:20:04.721Z,13.40
2019-03-17T09:22:32.832Z,13.40
2019-03-17T09:25:01.230Z,13.40
2019-03-17T09:27:29.356Z,13.40
2019-03-17T09:29:57.661Z,13.50
2019-03-17T09:32:25.958Z,13.70
2019-03-17T09:34:54.314Z,14.30
2019-03-17T09:37:24.460Z,14.70
2019-03-17T09:39:52.916Z,15.40
2019-03-17T09:42:21.570Z,15.40
2019-03-17T09:44:49.641Z,15.40
2019-03-17T09:47:17.698Z,15.10
2019-03-17T09:49:45.961Z,14.70
2019-03-17T09:52:14.674Z,14.40
2019-03-17T09:54:42.982Z,14.20
2019-03-17T09:57:11.028Z,13.90
2019-03-17T09:59:39.090Z,13.80
2019-03-17T10:02:07.341Z,13.70
2019-03-17T10:04:35.468Z,13.70
2019-03-17T10:07:04.122Z,13.70
2019-03-17T10:09:32.106Z,13.80
2019-03-17T10:12:00.328Z,13.90
2019-03-17T10:14:29.567Z,13.70
2019-03-17T10:16:57.758Z,13.70
2019-03-17T10:19:25.966Z,13.70
2019-03-17T10:21:53.985Z,13.70
2019-03-17T10:24:22.160Z,13.70
2019-03-17T10:26:50.259Z,13.70
2019-03-17T10:29:18.437Z,13.60
2019-03-17T10:31:46.519Z,13.50
2019-03-17T10:34:14.564Z,13.50
2019-03-17T10:36:43.086Z,13.50
2019-03-17T10:39:12.709Z,13.40
2019-03-17T10:41:41.328Z,13.50
2019-03-17T10:44:09.879Z,13.70
2019-03-17T10:46:41.584Z,13.80
2019-03-17T10:49:09.794Z,13.60
2019-03-17T10:51:38.175Z,13.60
2019-03-17T10:54:06.523Z,13.60
2019-03-17T10:56:34.557Z,13.70
2019-03-17T10:59:02.762Z,13.70
2019-03-17T11:01:31.795Z,13.80
2019-03-17T11:04:00.315Z,13.90
2019-03-17T11:06:28.329Z,14.00
2019-03-17T11:08:56.926Z,14.30
2019-03-17T11:11:25.082Z,14.40
2019-03-17T11:13:53.029Z,14.50
2019-03-17T11:16:21.038Z,14.70
2019-03-17T11:18:49.260Z,14.80
2019-03-17T11:21:17.632Z,14.60
2019-03-17T11:23:45.693Z,14.60
2019-03-17T11:26:13.939Z,14.30
2019-03-17T11:28:41.867Z,14.20
2019-03-17T11:31:10.011Z,14.10
2019-03-17T11:33:38.024Z,14.10
2019-03-17T11:36:06.369Z,14.10
2019-03-17T11:38:34.331Z,14.00
2019-03-17T11:41:02.639Z,13.90
2019-03-17T11:43:30.670Z,13.80
2019-03-17T11:45:58.887Z,13.70
2019-03-17T11:48:26.979Z,13.70
2019-03-17T11:50:55.501Z,13.80
2019-03-17T11:53:23.681Z,13.90
2019-03-17T11:55:51.715Z,13.90
2019-03-17T11:58:19.690Z,14.00
2019-03-17T12:00:48.146Z,13.90
2019-03-17T12:03:16.305Z,13.70
2019-03-17T12:05:44.302Z,13.60
2019-03-17T12:08:12.704Z,13.50
2019-03-17T12:10:40.732Z,13.30
2019-03-17T12:13:09.163Z,13.10
2019-03-17T12:15:37.345Z,13.10
2019-03-17T12:18:05.694Z,13.10
2019-03-17T12:20:33.697Z,13.00
2019-03-17T12:23:02.698Z,12.90
2019-03-17T12:25:30.729Z,12.80
2019-03-17T12:27:58.706Z,12.70
2019-03-17T12:30:26.925Z,12.70
2019-03-17T12:32:55.571Z,12.50
2019-03-17T12:35:23.920Z,12.50
2019-03-17T12:37:52.284Z,12.30
2019-03-17T12:40:20.549Z,12.10
2019-03-17T12:42:48.933Z,11.20
2019-03-17T12:45:17.936Z,10.30
2019-03-17T12:47:46.086Z,9.50
2019-03-17T12:50:14.227Z,9.00
2019-03-17T12:52:42.349Z,8.90
2019-03-17T12:55:12.953Z,8.90
2019-03-17T12:57:41.500Z,9.00
2019-03-17T13:00:13.443Z,9.10
2019-03-17T13:02:41.545Z,9.00
2019-03-17T13:05:10.906Z,9.10
2019-03-17T13:07:44.064Z,9.10
2019-03-17T13:10:16.119Z,9.20
2019-03-17T13:12:44.576Z,9.10
2019-03-17T13:15:12.898Z,9.00
2019-03-17T13:17:41.306Z,8.80
2019-03-17T13:20:10.966Z,8.90
2019-03-17T13:22:39.642Z,9.00
2019-03-17T13:25:08.539Z,9.00
2019-03-17T13:27:36.589Z,9.00
2019-03-17T13:30:06.188Z,9.10
2019-03-17T13:32:34.156Z,9.10
2019-03-17T13:35:02.220Z,9.10
2019-03-17T13:37:30.251Z,9.10
2019-03-17T13:39:58.781Z,9.00
2019-03-17T13:42:27.241Z,9.00
2019-03-17T13:44:56.764Z,9.00
2019-03-17T13:47:25.029Z,9.00
2019-03-17T13:49:53.133Z,9.00
2019-03-17T13:52:21.343Z,9.00
2019-03-17T13:54:50.915Z,9.10
2019-03-17T13:57:19.854Z,9.20
2019-03-17T13:59:48.126Z,9.20
2019-03-17T14:02:16.379Z,9.30
2019-03-17T14:04:47.825Z,9.50
2019-03-17T14:07:17.239Z,9.50
2019-03-17T14:09:45.695Z,9.60
2019-03-17T14:12:14.024Z,9.60
2019-03-17T14:14:42.584Z,9.60
2019-03-17T14:17:12.569Z,9.70
2019-03-17T14:19:41.089Z,9.60
2019-03-17T14:22:09.639Z,9.60
2019-03-17T14:24:38.956Z,9.70
2019-03-17T14:27:07.270Z,9.70
2019-03-17T14:29:37.250Z,9.70
2019-03-17T14:32:05.657Z,9.60
2019-03-17T14:34:34.313Z,9.70
2019-03-17T14:37:03.208Z,9.70
2019-03-17T14:39:31.230Z,9.70
2019-03-17T14:42:04.604Z,9.80
2019-03-17T14:44:33.510Z,9.80
2019-03-17T14:47:02.166Z,10.00
2019-03-17T14:49:30.840Z,10.00
2019-03-17T14:51:59.755Z,9.90
2019-03-17T14:54:28.907Z,9.80
2019-03-17T14:56:58.270Z,9.70
2019-03-17T14:59:27.396Z,9.70
2019-03-17T15:01:55.525Z,9.70
2019-03-17T15:04:24.137Z,9.70
2019-03-17T15:06:52.569Z,9.70
2019-03-17T15:09:24.991Z,9.80
2019-03-17T15:12:08.150Z,9.80
2019-03-17T15:14:37.079Z,9.70
2019-03-17T15:17:06.898Z,9.70
2019-03-17T15:19:34.827Z,9.60
2019-03-17T15:22:03.333Z,9.50
2019-03-17T15:24:31.773Z,9.40
2019-03-17T15:26:59.895Z,9.30
2019-03-17T15:29:27.938Z,9.30
2019-03-17T15:31:56.152Z,9.20
2019-03-17T15:34:26.926Z,9.20
2019-03-17T15:36:55.450Z,9.30
2019-03-17T15:39:23.674Z,9.30
2019-03-17T15:41:52.073Z,9.40
2019-03-17T15:44:20.807Z,9.30
2019-03-17T15:46:49.166Z,9.30
2019-03-17T15:49:17.450Z,9.40
2019-03-17T15:51:45.536Z,9.40
2019-03-17T15:54:14.386Z,9.30
2019-03-17T15:56:43.330Z,9.20
2019-03-17T15:59:11.406Z,9.10
2019-03-17T16:01:40.354Z,9.20
2019-03-17T16:04:08.422Z,9.10
2019-03-17T16:06:36.774Z,9.00
2019-03-17T16:09:08.250Z,8.90
2019-03-17T16:11:36.414Z,9.00
2019-03-17T16:14:05.515Z,8.90
2019-03-17T16:16:34.478Z,8.90
2019-03-17T16:19:02.582Z,9.00
2019-03-17T16:21:31.564Z,8.90
2019-03-17T16:24:02.991Z,8.90
2019-03-17T16:26:31.199Z,8.90
2019-03-17T16:28:59.584Z,9.00
2019-03-17T16:31:27.718Z,9.00
2019-03-17T16:33:56.247Z,9.10
2019-03-17T16:36:24.134Z,9.10
2019-03-17T16:38:52.509Z,9.20
2019-03-17T16:41:21.983Z,9.20
2019-03-17T16:43:50.537Z,9.30
2019-03-17T16:46:18.623Z,9.20
2019-03-17T16:48:46.698Z,9.10
2019-03-17T16:51:14.960Z,9.10
2019-03-17T16:53:46.179Z,9.00
2019-03-17T16:56:14.085Z,8.80
2019-03-17T16:58:42.086Z,8.70
2019-03-17T17:01:10.785Z,8.80
2019-03-17T17:03:39.659Z,8.80
2019-03-17T17:06:07.871Z,8.90
2019-03-17T17:08:37.802Z,8.90
2019-03-17T17:11:06.198Z,8.80
2019-03-17T17:13:34.227Z,8.80
2019-03-17T17:16:02.267Z,8.50
2019-03-17T17:18:30.629Z,8.40
2019-03-17T17:20:59.087Z,8.30
2019-03-17T17:23:27.069Z,8.00
2019-03-17T17:25:55.508Z,8.00
2019-03-17T17:28:23.656Z,7.90
2019-03-17T17:30:52.094Z,7.80
2019-03-17T17:33:20.221Z,7.90
2019-03-17T17:35:48.169Z,7.90
2019-03-17T17:38:16.629Z,7.60
2019-03-17T17:40:44.721Z,7.60
2019-03-17T17:43:12.721Z,7.50
2019-03-17T17:45:41.539Z,7.60
2019-03-17T17:48:10.953Z,7.50
2019-03-17T17:50:39.073Z,7.50
2019-03-17T17:53:07.690Z,7.50
2019-03-17T17:55:36.569Z,7.50
2019-03-17T17:58:04.918Z,7.30
2019-03-17T18:00:37.124Z,7.20
2019-03-17T18:03:06.053Z,7.10
2019-03-17T18:05:34.302Z,6.90
2019-03-17T18:08:02.421Z,7.00
2019-03-17T18:10:33.140Z,7.10
2019-03-17T18:13:01.641Z,6.90
2019-03-17T18:15:29.880Z,7.00
2019-03-17T18:17:58.062Z,7.00
2019-03-17T18:20:26.563Z,7.00
2019-03-17T18:22:55.346Z,6.90
2019-03-17T18:25:23.992Z,6.90
2019-03-17T18:27:52.414Z,6.80
2019-03-17T18:30:20.673Z,6.70
2019-03-17T18:32:48.948Z,6.70
2019-03-17T18:35:17.310Z,6.70
2019-03-17T18:37:45.402Z,6.60
2019-03-17T18:40:13.975Z,6.60
2019-03-17T18:42:42.161Z,6.40
2019-03-17T18:45:13.490Z,6.50
2019-03-17T18:47:41.560Z,6.50
2019-03-17T18:50:19.543Z,6.40
2019-03-17T18:52:40.256Z,6.40
2019-03-17T18:55:09.059Z,6.40
2019-03-17T18:57:37.659Z,6.20
2019-03-17T19:00:09.349Z,6.30
2019-03-17T19:02:38.512Z,6.40
2019-03-17T19:05:19.934Z,6.50
2019-03-17T19:07:47.898Z,6.60
2019-03-17T19:10:16.113Z,6.50
2019-03-17T19:12:45.681Z,6.50
2019-03-17T19:15:14.852Z,6.50
2019-03-17T19:17:42.905Z,6.50
2019-03-17T19:20:12.982Z,6.50
2019-03-17T19:22:41.384Z,6.40
2019-03-17T19:25:11.366Z,6.40
2019-03-17T19:27:39.675Z,6.50
2019-03-17T19:30:11.161Z,6.50
2019-03-17T19:32:39.303Z,6.60
2019-03-17T19:35:07.589Z,6.60
2019-03-17T19:37:35.706Z,6.70
2019-03-17T19:40:04.891Z,6.60
2019-03-17T19:42:32.866Z,6.60
2019-03-17T19:45:01.000Z,6.60
2019-03-17T19:47:29.610Z,6.50
2019-03-17T19:49:59.690Z,6.60
2019-03-17T19:52:31.833Z,6.60
2019-03-17T19:55:03.340Z,6.50
2019-03-17T19:57:31.570Z,6.30
2019-03-17T19:59:59.645Z,6.30
2019-03-17T20:02:28.056Z,6.30
2019-03-17T20:04:56.353Z,6.10
2019-03-17T20:07:25.227Z,6.20
2019-03-17T20:09:53.668Z,6.10
2019-03-17T20:12:21.904Z,6.30
2019-03-17T20:14:50.248Z,6.40
2019-03-17T20:17:19.197Z,6.30
2019-03-17T20:19:47.415Z,6.30
2019-03-17T20:22:16.042Z,6.10
2019-03-17T20:24:44.550Z,6.20
2019-03-17T20:27:13.724Z,6.10
2019-03-17T20:29:44.622Z,6.10
2019-03-17T20:32:12.920Z,6.00
2019-03-17T20:34:41.633Z,5.90
2019-03-17T20:37:09.824Z,5.90
2019-03-17T20:39:37.950Z,5.80
2019-03-17T20:42:05.924Z,5.80
2019-03-17T20:44:35.409Z,5.60
2019-03-17T20:47:06.998Z,5.80
2019-03-17T20:49:35.241Z,5.70
2019-03-17T20:52:03.639Z,5.70
2019-03-17T20:54:31.749Z,5.70
2019-03-17T20:57:00.821Z,5.70
2019-03-17T20:59:29.124Z,5.70
2019-03-17T21:01:57.477Z,5.60
2019-03-17T21:04:25.693Z,5.60
2019-03-17T21:06:54.197Z,5.50
2019-03-17T21:09:22.678Z,5.50
2019-03-17T21:11:51.212Z,5.50
2019-03-17T21:14:19.767Z,5.40
2019-03-17T21:16:48.216Z,5.40
2019-03-17T21:19:16.279Z,5.40
2019-03-17T21:21:44.934Z,5.40
2019-03-17T21:24:13.059Z,5.50
2019-03-17T21:26:41.101Z,5.60
2019-03-17T21:29:09.249Z,5.50
2019-03-17T21:31:37.590Z,5.50
2019-03-17T21:34:05.934Z,5.70
2019-03-17T21:36:34.139Z,5.70
2019-03-17T21:39:02.235Z,5.80
2019-03-17T21:41:30.305Z,5.90
2019-03-17T21:43:59.601Z,5.80
2019-03-17T21:46:28.335Z,6.00
2019-03-17T21:48:56.304Z,6.00
2019-03-17T21:51:24.479Z,6.00
2019-03-17T21:53:52.436Z,5.90
2019-03-17T21:56:20.442Z,5.90
2019-03-17T21:58:48.428Z,5.80
2019-03-17T22:01:16.576Z,5.80
2019-03-17T22:03:44.549Z,5.70
2019-03-17T22:06:12.912Z,5.60
2019-03-17T22:08:40.985Z,5.60
2019-03-17T22:11:09.137Z,5.60
2019-03-17T22:13:37.613Z,5.50
2019-03-17T22:16:05.557Z,5.60
2019-03-17T22:18:33.497Z,5.70
2019-03-17T22:21:01.768Z,5.70
2019-03-17T22:23:29.938Z,5.80
2019-03-17T22:25:57.918Z,5.80
2019-03-17T22:28:25.973Z,5.80
2019-03-17T22:30:54.253Z,5.80
2019-03-17T22:33:22.436Z,5.80
2019-03-17T22:35:51.105Z,5.90
2019-03-17T22:38:19.086Z,5.80
2019-03-17T22:40:47.569Z,5.70
2019-03-17T22:43:15.538Z,5.60
2019-03-17T22:45:43.711Z,5.60
2019-03-17T22:48:11.631Z,5.40
2019-03-17T22:50:39.710Z,5.30
2019-03-17T22:53:07.703Z,5.30
2019-03-17T22:55:35.687Z,5.30
2019-03-17T22:58:03.642Z,5.30
2019-03-17T23:00:42.243Z,5.20
2019-03-17T23:03:12.468Z,5.20
2019-03-17T23:05:40.844Z,5.20
2019-03-17T23:08:08.763Z,5.20
2019-03-17T23:10:36.729Z,5.20
2019-03-17T23:13:04.591Z,5.10
2019-03-17T23:15:35.435Z,5.00
2019-03-17T23:18:02.363Z,4.90
2019-03-17T23:20:30.619Z,4.80
2019-03-17T23:22:58.665Z,4.80
2019-03-17T23:25:26.925Z,4.80
2019-03-17T23:27:55.618Z,4.60
2019-03-17T23:30:24.018Z,4.70
2019-03-17T23:32:51.914Z,4.50
2019-03-17T23:35:19.872Z,4.60
2019-03-17T23:37:47.824Z,4.50
2019-03-17T23:40:15.986Z,4.50
2019-03-17T23:42:44.174Z,4.40
2019-03-17T23:45:12.315Z,4.50
2019-03-17T23:47:40.260Z,4.40
2019-03-17T23:50:08.511Z,4.40
2019-03-17T23:52:36.507Z,4.40
2019-03-17T23:55:05.081Z,4.40
2019-03-17T23:57:33.513Z,4.40
